METAR AND TAF INFORMATION

METAR FOR EGLL
ADDS - METARS form results

(1529 UTC 21 May 2022)
Data provider http://aviationweather.gov/metar/data/
 
METAR text: EGLL 211520Z AUTO 26008KT 200V310 9999 NCD 19/07 Q1020 NOSIG
Conditions at: EGLL (LONDON/HEATHROW , GB) observed 1520 UTC 21 May 2022
Temperature: 19.0°C (66°F)
Dewpoint: 7.0°C (45°F) [RH = 46%]
Pressure (altimeter): 30.12 inches Hg (1020.0 mb)
Winds: from the W (260 degrees) at 9 MPH (8 knots; 4.1 m/s)
Visibility: 6 or more miles (10+ km)
Ceiling: at least 12,000 feet AGL
Clouds: sky clear below 12,000 feet AGL
Weather: no significant weather observed at this time

METAR text: EGLL 211450Z AUTO 28009KT 230V320 9999 BKN048 20/07 Q1020 NOSIG
Conditions at: EGLL (LONDON/HEATHROW , GB) observed 1450 UTC 21 May 2022
Temperature: 20.0°C (68°F)
Dewpoint: 7.0°C (45°F) [RH = 43%]
Pressure (altimeter): 30.12 inches Hg (1020.0 mb)
Winds: from the W (280 degrees) at 10 MPH (9 knots; 4.6 m/s)
Visibility: 6 or more miles (10+ km)
Ceiling: 4800 feet AGL
Clouds: broken clouds at 4800 feet AGL
Weather: no significant weather observed at this time

Forecast for: EGLL (LONDON/HEATHROW , GB)
Text: TAF EGLL 211053Z 2112/2218 26009KT 9999 SCT045
Forecast period: 1200 UTC 21 May 2022 to 1800 UTC 22 May 2022
Forecast type: FROM: standard forecast or significant change
Winds: from the W (260 degrees) at 10 MPH (9 knots; 4.6 m/s)
Visibility: 6 or more miles (10+ km)
Ceiling: at least 12,000 feet AGL
Clouds: scattered clouds at 4500 feet AGL
Weather: no significant weather forecast for this period
Text: PROB30 2203/2207 8000
Forecast period: 0300 to 0700 UTC 22 May 2022
Forecast type: PROBABLE: 30 percent likelihood of the following during this time
Visibility: 5 miles (8 km)
Ceiling: unknown
Clouds: missing
Weather: no significant weather forecast for this period

 

AIRPORT MAP

 

RUNWAY INFORMATION

Runway 09L Runway length 12799 ft Runway width 164 ft
Runway elevation 79 ft Runway displaced threshold 1007 ft Runway heading 90
Runway 27R Runway length 12799 ft Runway width 164 ft
Runway elevation 78 ft Runway displaced threshold 0 ft Runway heading 270
Runway 09R Runway length 12001 ft Runway width 148 ft
Runway elevation 75 ft Runway displaced threshold 1013 ft Runway heading 90
Runway 27L Runway length 12001 ft Runway width 148 ft
Runway elevation 77 ft Runway displaced threshold 0 ft Runway heading 270

 

AIRPORT FREQUENCIES

Type APP Name APP Frequency 119.725 MHZ
Type ATIS Name ATIS Frequency 128.075 MHZ
Type CLD Name CLNC DEL Frequency 121.975 MHZ
Type GND Name GND Frequency 121.7 MHZ
Type TWR Name TWR Frequency 118.475 MHZ

 

AIRPORT NEAR NAVIGATION AIDS

Type VOR-DME Name London Frequency 113600 KHZ